sensor_id;sensor_type;location;lat;lon;timestamp;temperature;humidity
31525;DHT22;18134;52.298;8.888;2023-02-27T00:01:37;-3.50;99.90
31525;DHT22;18134;52.298;8.888;2023-02-27T00:04:03;-3.50;99.90
31525;DHT22;18134;52.298;8.888;2023-02-27T00:06:31;-3.60;99.90
31525;DHT22;18134;52.298;8.888;2023-02-27T00:08:59;-3.60;99.90
31525;DHT22;18134;52.298;8.888;2023-02-27T00:11:24;-3.70;99.90
31525;DHT22;18134;52.298;8.888;2023-02-27T00:13:52;-3.80;99.90
31525;DHT22;18134;52.298;8.888;2023-02-27T00:16:23;-3.80;99.90
31525;DHT22;18134;52.298;8.888;2023-02-27T00:18:48;-3.80;99.90
31525;DHT22;18134;52.298;8.888;2023-02-27T00:21:14;-3.80;99.90
31525;DHT22;18134;52.298;8.888;2023-02-27T00:23:39;-3.80;99.90
31525;DHT22;18134;52.298;8.888;2023-02-27T00:26:07;-3.80;99.90
31525;DHT22;18134;52.298;8.888;2023-02-27T00:28:33;-3.90;99.90
31525;DHT22;18134;52.298;8.888;2023-02-27T00:30:58;-3.90;99.90
31525;DHT22;18134;52.298;8.888;2023-02-27T00:33:28;-3.90;99.90
31525;DHT22;18134;52.298;8.888;2023-02-27T00:36:00;-3.80;99.90
31525;DHT22;18134;52.298;8.888;2023-02-27T00:38:28;-3.70;99.90
31525;DHT22;18134;52.298;8.888;2023-02-27T00:40:54;-3.60;99.90
31525;DHT22;18134;52.298;8.888;2023-02-27T00:43:22;-3.70;99.90
31525;DHT22;18134;52.298;8.888;2023-02-27T00:45:47;-3.70;99.90
31525;DHT22;18134;52.298;8.888;2023-02-27T00:48:15;-3.60;99.90
31525;DHT22;18134;52.298;8.888;2023-02-27T00:50:43;-3.80;99.90
31525;DHT22;18134;52.298;8.888;2023-02-27T00:53:09;-3.80;99.90
31525;DHT22;18134;52.298;8.888;2023-02-27T00:55:35;-3.90;99.90
31525;DHT22;18134;52.298;8.888;2023-02-27T00:58:03;-3.90;99.90
31525;DHT22;18134;52.298;8.888;2023-02-27T01:00:28;-3.90;99.90
31525;DHT22;18134;52.298;8.888;2023-02-27T01:02:54;-4.00;99.90
31525;DHT22;18134;52.298;8.888;2023-02-27T01:05:19;-3.90;99.90
31525;DHT22;18134;52.298;8.888;2023-02-27T01:07:45;-3.90;99.90
31525;DHT22;18134;52.298;8.888;2023-02-27T01:10:11;-3.90;99.90
31525;DHT22;18134;52.298;8.888;2023-02-27T01:12:36;-3.80;99.90
31525;DHT22;18134;52.298;8.888;2023-02-27T01:15:05;-3.90;99.90
31525;DHT22;18134;52.298;8.888;2023-02-27T01:17:31;-3.90;99.90
31525;DHT22;18134;52.298;8.888;2023-02-27T01:19:57;-3.90;99.90
31525;DHT22;18134;52.298;8.888;2023-02-27T01:22:22;-3.80;99.90
31525;DHT22;18134;52.298;8.888;2023-02-27T01:24:51;-3.90;99.90
31525;DHT22;18134;52.298;8.888;2023-02-27T01:27:16;-3.80;99.90
31525;DHT22;18134;52.298;8.888;2023-02-27T01:29:44;-3.80;99.90
31525;DHT22;18134;52.298;8.888;2023-02-27T01:32:12;-3.80;99.90
31525;DHT22;18134;52.298;8.888;2023-02-27T01:34:40;-3.80;99.90
31525;DHT22;18134;52.298;8.888;2023-02-27T01:37:06;-3.90;99.90
31525;DHT22;18134;52.298;8.888;2023-02-27T01:39:36;-3.90;99.90
31525;DHT22;18134;52.298;8.888;2023-02-27T01:42:05;-3.90;99.90
31525;DHT22;18134;52.298;8.888;2023-02-27T01:44:33;-3.90;99.90
31525;DHT22;18134;52.298;8.888;2023-02-27T01:47:16;-4.00;99.90
31525;DHT22;18134;52.298;8.888;2023-02-27T01:49:42;-4.00;99.90
31525;DHT22;18134;52.298;8.888;2023-02-27T01:52:10;-4.00;99.90
31525;DHT22;18134;52.298;8.888;2023-02-27T01:54:37;-4.00;99.90
31525;DHT22;18134;52.298;8.888;2023-02-27T01:57:04;-4.00;99.90
31525;DHT22;18134;52.298;8.888;2023-02-27T01:59:33;-4.10;99.90
31525;DHT22;18134;52.298;8.888;2023-02-27T02:02:01;-4.10;99.90
31525;DHT22;18134;52.298;8.888;2023-02-27T02:04:29;-4.00;99.90
31525;DHT22;18134;52.298;8.888;2023-02-27T02:07:04;-4.00;99.90
31525;DHT22;18134;52.298;8.888;2023-02-27T02:09:35;-4.00;99.90
31525;DHT22;18134;52.298;8.888;2023-02-27T02:12:01;-4.00;99.90
31525;DHT22;18134;52.298;8.888;2023-02-27T02:14:30;-4.00;99.90
31525;DHT22;18134;52.298;8.888;2023-02-27T02:17:02;-4.00;99.90
31525;DHT22;18134;52.298;8.888;2023-02-27T02:40:58;-4.10;99.90
31525;DHT22;18134;52.298;8.888;2023-02-27T02:43:36;-4.10;99.90
31525;DHT22;18134;52.298;8.888;2023-02-27T02:46:09;-4.10;99.90
31525;DHT22;18134;52.298;8.888;2023-02-27T03:01:30;-4.50;99.90
31525;DHT22;18134;52.298;8.888;2023-02-27T03:06:29;-4.60;99.90
31525;DHT22;18134;52.298;8.888;2023-02-27T03:09:02;-4.60;99.90
31525;DHT22;18134;52.298;8.888;2023-02-27T03:11:30;-4.60;99.90
31525;DHT22;18134;52.298;8.888;2023-02-27T03:13:59;-4.60;99.90
31525;DHT22;18134;52.298;8.888;2023-02-27T03:16:32;-4.60;99.90
31525;DHT22;18134;52.298;8.888;2023-02-27T03:19:04;-4.60;99.90
31525;DHT22;18134;52.298;8.888;2023-02-27T03:21:40;-4.60;99.90
31525;DHT22;18134;52.298;8.888;2023-02-27T03:24:09;-4.70;99.90
31525;DHT22;18134;52.298;8.888;2023-02-27T03:26:41;-4.60;99.90
31525;DHT22;18134;52.298;8.888;2023-02-27T03:29:10;-4.60;99.90
31525;DHT22;18134;52.298;8.888;2023-02-27T03:31:40;-4.70;99.90
31525;DHT22;18134;52.298;8.888;2023-02-27T03:34:16;-4.70;99.90
31525;DHT22;18134;52.298;8.888;2023-02-27T03:36:45;-4.80;99.90
31525;DHT22;18134;52.298;8.888;2023-02-27T03:46:44;-4.80;99.90
31525;DHT22;18134;52.298;8.888;2023-02-27T03:49:10;-4.70;99.90
31525;DHT22;18134;52.298;8.888;2023-02-27T03:51:35;-4.70;99.90
31525;DHT22;18134;52.298;8.888;2023-02-27T03:57:00;-4.70;99.90
31525;DHT22;18134;52.298;8.888;2023-02-27T03:59:20;-4.70;99.90
31525;DHT22;18134;52.298;8.888;2023-02-27T04:01:46;-4.80;99.90
31525;DHT22;18134;52.298;8.888;2023-02-27T04:04:17;-4.90;99.90
31525;DHT22;18134;52.298;8.888;2023-02-27T04:06:52;-4.90;99.90
31525;DHT22;18134;52.298;8.888;2023-02-27T04:13:07;-4.80;99.90
31525;DHT22;18134;52.298;8.888;2023-02-27T04:17:31;-4.60;99.90
31525;DHT22;18134;52.298;8.888;2023-02-27T04:30:23;-4.20;99.90
31525;DHT22;18134;52.298;8.888;2023-02-27T04:32:55;-4.20;99.90
31525;DHT22;18134;52.298;8.888;2023-02-27T04:35:24;-4.20;99.90
31525;DHT22;18134;52.298;8.888;2023-02-27T04:40:32;-4.10;99.90
31525;DHT22;18134;52.298;8.888;2023-02-27T04:42:58;-4.10;99.90
31525;DHT22;18134;52.298;8.888;2023-02-27T04:45:25;-4.20;99.90
31525;DHT22;18134;52.298;8.888;2023-02-27T04:47:54;-4.30;99.90
31525;DHT22;18134;52.298;8.888;2023-02-27T04:50:24;-4.40;99.90
31525;DHT22;18134;52.298;8.888;2023-02-27T04:55:53;-4.50;99.90
31525;DHT22;18134;52.298;8.888;2023-02-27T04:58:24;-4.60;99.90
31525;DHT22;18134;52.298;8.888;2023-02-27T05:00:53;-4.60;99.90
31525;DHT22;18134;52.298;8.888;2023-02-27T05:03:24;-4.60;99.90
31525;DHT22;18134;52.298;8.888;2023-02-27T05:05:52;-4.60;99.90
31525;DHT22;18134;52.298;8.888;2023-02-27T05:08:28;-4.60;99.90
31525;DHT22;18134;52.298;8.888;2023-02-27T05:13:50;-4.70;99.90
31525;DHT22;18134;52.298;8.888;2023-02-27T05:18:45;-4.80;99.90
31525;DHT22;18134;52.298;8.888;2023-02-27T05:32:03;-4.90;99.90
31525;DHT22;18134;52.298;8.888;2023-02-27T05:34:32;-4.90;99.90
31525;DHT22;18134;52.298;8.888;2023-02-27T05:37:03;-4.90;99.90
31525;DHT22;18134;52.298;8.888;2023-02-27T05:39:34;-5.00;99.90
31525;DHT22;18134;52.298;8.888;2023-02-27T05:42:03;-5.10;99.90
31525;DHT22;18134;52.298;8.888;2023-02-27T05:44:31;-5.10;99.90
31525;DHT22;18134;52.298;8.888;2023-02-27T05:46:58;-4.80;99.90
31525;DHT22;18134;52.298;8.888;2023-02-27T05:51:52;-5.10;99.90
31525;DHT22;18134;52.298;8.888;2023-02-27T05:54:30;-5.00;99.90
31525;DHT22;18134;52.298;8.888;2023-02-27T05:56:57;-5.00;99.90
31525;DHT22;18134;52.298;8.888;2023-02-27T05:59:34;-5.00;99.90
31525;DHT22;18134;52.298;8.888;2023-02-27T06:02:03;-4.80;99.90
31525;DHT22;18134;52.298;8.888;2023-02-27T06:04:32;-4.70;99.90
31525;DHT22;18134;52.298;8.888;2023-02-27T06:07:00;-4.60;99.90
31525;DHT22;18134;52.298;8.888;2023-02-27T06:09:32;-4.50;99.90
31525;DHT22;18134;52.298;8.888;2023-02-27T06:12:00;-4.40;99.90
31525;DHT22;18134;52.298;8.888;2023-02-27T06:14:26;-4.30;99.90
31525;DHT22;18134;52.298;8.888;2023-02-27T06:16:51;-4.30;99.90
31525;DHT22;18134;52.298;8.888;2023-02-27T06:19:17;-4.20;99.90
31525;DHT22;18134;52.298;8.888;2023-02-27T06:21:45;-4.20;99.90
31525;DHT22;18134;52.298;8.888;2023-02-27T06:24:10;-4.10;99.90
31525;DHT22;18134;52.298;8.888;2023-02-27T06:26:36;-4.10;99.90
31525;DHT22;18134;52.298;8.888;2023-02-27T06:29:03;-3.80;99.90
31525;DHT22;18134;52.298;8.888;2023-02-27T06:31:32;-4.10;99.90
31525;DHT22;18134;52.298;8.888;2023-02-27T06:34:00;-4.00;99.90
31525;DHT22;18134;52.298;8.888;2023-02-27T06:36:25;-3.90;99.90
31525;DHT22;18134;52.298;8.888;2023-02-27T06:38:53;-3.80;99.90
31525;DHT22;18134;52.298;8.888;2023-02-27T06:41:22;-3.70;99.90
31525;DHT22;18134;52.298;8.888;2023-02-27T06:43:47;-3.60;99.90
31525;DHT22;18134;52.298;8.888;2023-02-27T06:46:13;-3.40;99.90
31525;DHT22;18134;52.298;8.888;2023-02-27T06:48:41;-3.20;99.90
31525;DHT22;18134;52.298;8.888;2023-02-27T06:51:06;-3.10;99.90
31525;DHT22;18134;52.298;8.888;2023-02-27T06:53:32;-3.00;99.90
31525;DHT22;18134;52.298;8.888;2023-02-27T06:56:00;-2.90;99.90
31525;DHT22;18134;52.298;8.888;2023-02-27T06:58:25;-2.80;99.90
31525;DHT22;18134;52.298;8.888;2023-02-27T07:00:57;-2.80;99.90
31525;DHT22;18134;52.298;8.888;2023-02-27T07:03:22;-2.80;99.90
31525;DHT22;18134;52.298;8.888;2023-02-27T07:05:48;-2.70;99.90
31525;DHT22;18134;52.298;8.888;2023-02-27T07:08:14;-2.70;99.90
31525;DHT22;18134;52.298;8.888;2023-02-27T07:10:44;-2.50;99.90
31525;DHT22;18134;52.298;8.888;2023-02-27T07:13:11;-2.40;99.90
31525;DHT22;18134;52.298;8.888;2023-02-27T07:15:37;-2.30;99.90
31525;DHT22;18134;52.298;8.888;2023-02-27T07:18:05;-2.10;99.90
31525;DHT22;18134;52.298;8.888;2023-02-27T07:20:32;-2.00;99.90
31525;DHT22;18134;52.298;8.888;2023-02-27T07:23:01;-1.90;99.90
31525;DHT22;18134;52.298;8.888;2023-02-27T07:25:31;-1.80;99.90
31525;DHT22;18134;52.298;8.888;2023-02-27T07:27:56;-1.70;99.90
31525;DHT22;18134;52.298;8.888;2023-02-27T07:30:24;-1.60;99.90
31525;DHT22;18134;52.298;8.888;2023-02-27T07:32:49;-1.60;99.90
31525;DHT22;18134;52.298;8.888;2023-02-27T07:35:18;-1.60;99.90
31525;DHT22;18134;52.298;8.888;2023-02-27T07:37:48;-1.50;99.90
31525;DHT22;18134;52.298;8.888;2023-02-27T07:40:16;-1.50;99.90
31525;DHT22;18134;52.298;8.888;2023-02-27T07:42:47;-1.50;99.90
31525;DHT22;18134;52.298;8.888;2023-02-27T07:45:15;-1.50;99.90
31525;DHT22;18134;52.298;8.888;2023-02-27T07:47:43;-1.40;99.90
31525;DHT22;18134;52.298;8.888;2023-02-27T07:50:09;-1.40;99.90
31525;DHT22;18134;52.298;8.888;2023-02-27T07:52:41;-1.40;99.90
31525;DHT22;18134;52.298;8.888;2023-02-27T07:55:07;-1.40;99.90
31525;DHT22;18134;52.298;8.888;2023-02-27T07:57:33;-1.30;99.90
31525;DHT22;18134;52.298;8.888;2023-02-27T07:59:58;-1.20;99.90
31525;DHT22;18134;52.298;8.888;2023-02-27T08:02:26;-1.20;99.90
31525;DHT22;18134;52.298;8.888;2023-02-27T08:04:52;-1.10;99.90
31525;DHT22;18134;52.298;8.888;2023-02-27T08:07:20;-1.10;99.90
31525;DHT22;18134;52.298;8.888;2023-02-27T08:09:46;-1.10;99.90
31525;DHT22;18134;52.298;8.888;2023-02-27T08:12:13;-1.10;99.90
31525;DHT22;18134;52.298;8.888;2023-02-27T08:14:41;-1.10;99.90
31525;DHT22;18134;52.298;8.888;2023-02-27T08:17:09;-1.10;99.90
31525;DHT22;18134;52.298;8.888;2023-02-27T08:19:37;-1.00;99.90
31525;DHT22;18134;52.298;8.888;2023-02-27T08:22:03;-1.00;99.90
31525;DHT22;18134;52.298;8.888;2023-02-27T08:24:29;-1.00;99.90
31525;DHT22;18134;52.298;8.888;2023-02-27T08:26:55;-0.90;99.90
31525;DHT22;18134;52.298;8.888;2023-02-27T08:29:21;-0.70;99.90
31525;DHT22;18134;52.298;8.888;2023-02-27T08:31:47;-0.60;99.90
31525;DHT22;18134;52.298;8.888;2023-02-27T08:34:12;-0.60;99.90
31525;DHT22;18134;52.298;8.888;2023-02-27T08:36:38;-0.60;99.90
31525;DHT22;18134;52.298;8.888;2023-02-27T08:39:06;-0.40;99.90
31525;DHT22;18134;52.298;8.888;2023-02-27T08:41:32;-0.30;99.90
31525;DHT22;18134;52.298;8.888;2023-02-27T08:44:00;-0.10;99.90
31525;DHT22;18134;52.298;8.888;2023-02-27T08:46:28;0.10;99.90
31525;DHT22;18134;52.298;8.888;2023-02-27T08:48:54;0.30;99.90
31525;DHT22;18134;52.298;8.888;2023-02-27T08:51:19;0.40;99.90
31525;DHT22;18134;52.298;8.888;2023-02-27T08:53:45;0.60;99.90
31525;DHT22;18134;52.298;8.888;2023-02-27T08:56:14;0.60;99.90
31525;DHT22;18134;52.298;8.888;2023-02-27T08:58:39;0.60;99.90
31525;DHT22;18134;52.298;8.888;2023-02-27T09:01:05;0.70;99.90
31525;DHT22;18134;52.298;8.888;2023-02-27T09:03:33;0.80;99.90
31525;DHT22;18134;52.298;8.888;2023-02-27T09:05:58;0.90;99.90
31525;DHT22;18134;52.298;8.888;2023-02-27T09:08:24;1.00;99.90
31525;DHT22;18134;52.298;8.888;2023-02-27T09:10:49;1.10;99.90
31525;DHT22;18134;52.298;8.888;2023-02-27T09:13:15;1.10;99.90
31525;DHT22;18134;52.298;8.888;2023-02-27T09:15:45;1.20;99.90
31525;DHT22;18134;52.298;8.888;2023-02-27T09:18:11;1.30;99.90
31525;DHT22;18134;52.298;8.888;2023-02-27T09:20:36;1.50;99.90
31525;DHT22;18134;52.298;8.888;2023-02-27T09:23:04;1.60;99.90
31525;DHT22;18134;52.298;8.888;2023-02-27T09:25:32;1.80;99.90
31525;DHT22;18134;52.298;8.888;2023-02-27T09:27:57;1.90;99.90
31525;DHT22;18134;52.298;8.888;2023-02-27T09:30:23;2.00;99.90
31525;DHT22;18134;52.298;8.888;2023-02-27T09:32:49;2.10;99.90
31525;DHT22;18134;52.298;8.888;2023-02-27T09:35:15;2.20;99.90
31525;DHT22;18134;52.298;8.888;2023-02-27T09:37:41;2.30;99.90
31525;DHT22;18134;52.298;8.888;2023-02-27T09:40:07;2.50;99.90
31525;DHT22;18134;52.298;8.888;2023-02-27T09:42:37;2.60;99.90
31525;DHT22;18134;52.298;8.888;2023-02-27T09:45:12;2.80;99.90
31525;DHT22;18134;52.298;8.888;2023-02-27T09:47:43;2.90;99.90
31525;DHT22;18134;52.298;8.888;2023-02-27T09:52:53;3.10;99.90
31525;DHT22;18134;52.298;8.888;2023-02-27T09:55:19;3.00;99.90
31525;DHT22;18134;52.298;8.888;2023-02-27T09:57:52;3.00;99.90
31525;DHT22;18134;52.298;8.888;2023-02-27T10:08:33;3.40;99.90
31525;DHT22;18134;52.298;8.888;2023-02-27T10:11:07;3.50;99.90
31525;DHT22;18134;52.298;8.888;2023-02-27T10:15:59;4.00;99.90
31525;DHT22;18134;52.298;8.888;2023-02-27T10:18:27;4.20;99.90
31525;DHT22;18134;52.298;8.888;2023-02-27T10:21:00;4.30;99.90
31525;DHT22;18134;52.298;8.888;2023-02-27T10:23:38;4.40;99.90
31525;DHT22;18134;52.298;8.888;2023-02-27T10:26:04;4.20;99.90
31525;DHT22;18134;52.298;8.888;2023-02-27T10:28:32;4.30;99.90
31525;DHT22;18134;52.298;8.888;2023-02-27T10:31:00;4.40;99.90
31525;DHT22;18134;52.298;8.888;2023-02-27T10:33:38;4.40;99.90
31525;DHT22;18134;52.298;8.888;2023-02-27T10:36:06;4.70;99.90
31525;DHT22;18134;52.298;8.888;2023-02-27T10:38:51;5.10;99.90
31525;DHT22;18134;52.298;8.888;2023-02-27T10:41:20;5.20;99.90
31525;DHT22;18134;52.298;8.888;2023-02-27T10:43:48;5.20;99.90
31525;DHT22;18134;52.298;8.888;2023-02-27T10:46:20;5.10;99.90
31525;DHT22;18134;52.298;8.888;2023-02-27T10:48:50;5.10;99.90
31525;DHT22;18134;52.298;8.888;2023-02-27T10:53:44;5.10;99.90
31525;DHT22;18134;52.298;8.888;2023-02-27T10:56:12;5.10;99.90
31525;DHT22;18134;52.298;8.888;2023-02-27T10:58:42;5.20;99.90
31525;DHT22;18134;52.298;8.888;2023-02-27T11:01:12;5.20;99.90
31525;DHT22;18134;52.298;8.888;2023-02-27T11:03:41;5.30;99.90
31525;DHT22;18134;52.298;8.888;2023-02-27T11:06:23;5.30;99.90
31525;DHT22;18134;52.298;8.888;2023-02-27T11:11:53;5.40;99.90
31525;DHT22;18134;52.298;8.888;2023-02-27T11:14:28;5.40;99.90
31525;DHT22;18134;52.298;8.888;2023-02-27T11:16:55;5.50;99.90
31525;DHT22;18134;52.298;8.888;2023-02-27T11:22:14;5.50;99.90
31525;DHT22;18134;52.298;8.888;2023-02-27T11:24:43;5.40;99.90
31525;DHT22;18134;52.298;8.888;2023-02-27T11:30:00;5.30;99.90
31525;DHT22;18134;52.298;8.888;2023-02-27T11:32:40;5.10;99.90
31525;DHT22;18134;52.298;8.888;2023-02-27T11:35:27;5.20;99.90
31525;DHT22;18134;52.298;8.888;2023-02-27T11:37:54;5.30;99.90
31525;DHT22;18134;52.298;8.888;2023-02-27T11:40:21;5.30;99.90
31525;DHT22;18134;52.298;8.888;2023-02-27T11:43:33;5.40;99.90
31525;DHT22;18134;52.298;8.888;2023-02-27T11:45:37;5.60;99.90
31525;DHT22;18134;52.298;8.888;2023-02-27T11:48:08;5.80;99.90
31525;DHT22;18134;52.298;8.888;2023-02-27T11:53:25;5.70;99.90
31525;DHT22;18134;52.298;8.888;2023-02-27T11:55:48;5.80;99.90
31525;DHT22;18134;52.298;8.888;2023-02-27T11:58:18;5.90;99.90
31525;DHT22;18134;52.298;8.888;2023-02-27T12:03:20;6.00;99.90
31525;DHT22;18134;52.298;8.888;2023-02-27T12:05:57;6.20;99.90
31525;DHT22;18134;52.298;8.888;2023-02-27T12:08:47;6.20;99.90
31525;DHT22;18134;52.298;8.888;2023-02-27T12:14:04;6.20;99.90
31525;DHT22;18134;52.298;8.888;2023-02-27T12:16:47;6.10;99.90
31525;DHT22;18134;52.298;8.888;2023-02-27T12:19:20;5.90;99.90
31525;DHT22;18134;52.298;8.888;2023-02-27T12:21:48;5.80;99.90
31525;DHT22;18134;52.298;8.888;2023-02-27T12:26:42;5.80;99.90
31525;DHT22;18134;52.298;8.888;2023-02-27T12:29:26;6.00;99.90
31525;DHT22;18134;52.298;8.888;2023-02-27T12:31:56;6.30;99.90
31525;DHT22;18134;52.298;8.888;2023-02-27T12:37:02;6.70;99.90
31525;DHT22;18134;52.298;8.888;2023-02-27T12:39:30;6.70;99.90
31525;DHT22;18134;52.298;8.888;2023-02-27T12:50:21;5.60;99.90
31525;DHT22;18134;52.298;8.888;2023-02-27T12:55:33;5.50;99.90
31525;DHT22;18134;52.298;8.888;2023-02-27T13:00:41;5.90;99.90
31525;DHT22;18134;52.298;8.888;2023-02-27T13:03:23;6.10;99.90
31525;DHT22;18134;52.298;8.888;2023-02-27T13:11:13;6.20;99.90
31525;DHT22;18134;52.298;8.888;2023-02-27T13:13:46;6.40;99.90
31525;DHT22;18134;52.298;8.888;2023-02-27T13:16:20;6.60;99.90
31525;DHT22;18134;52.298;8.888;2023-02-27T13:18:52;6.70;99.90
31525;DHT22;18134;52.298;8.888;2023-02-27T13:21:29;6.70;99.90
31525;DHT22;18134;52.298;8.888;2023-02-27T13:26:48;7.10;99.90
31525;DHT22;18134;52.298;8.888;2023-02-27T13:29:15;7.30;99.90
31525;DHT22;18134;52.298;8.888;2023-02-27T13:36:42;7.20;99.90
31525;DHT22;18134;52.298;8.888;2023-02-27T13:39:54;7.30;99.90
31525;DHT22;18134;52.298;8.888;2023-02-27T13:41:55;7.30;99.90
31525;DHT22;18134;52.298;8.888;2023-02-27T13:46:51;7.50;99.90
31525;DHT22;18134;52.298;8.888;2023-02-27T13:49:20;7.40;99.90
31525;DHT22;18134;52.298;8.888;2023-02-27T13:51:51;7.40;99.90
31525;DHT22;18134;52.298;8.888;2023-02-27T13:54:22;7.30;99.90
31525;DHT22;18134;52.298;8.888;2023-02-27T14:04:20;8.50;99.90
31525;DHT22;18134;52.298;8.888;2023-02-27T14:06:49;8.30;99.90
31525;DHT22;18134;52.298;8.888;2023-02-27T14:09:17;8.00;99.90
31525;DHT22;18134;52.298;8.888;2023-02-27T14:11:54;8.00;99.90
31525;DHT22;18134;52.298;8.888;2023-02-27T14:17:04;7.40;99.90
31525;DHT22;18134;52.298;8.888;2023-02-27T14:22:02;6.90;99.90
31525;DHT22;18134;52.298;8.888;2023-02-27T14:24:51;6.70;99.90
31525;DHT22;18134;52.298;8.888;2023-02-27T14:27:26;6.30;99.90
31525;DHT22;18134;52.298;8.888;2023-02-27T14:29:55;6.10;99.90
31525;DHT22;18134;52.298;8.888;2023-02-27T14:32:22;6.30;99.90
31525;DHT22;18134;52.298;8.888;2023-02-27T14:34:53;6.60;99.90
31525;DHT22;18134;52.298;8.888;2023-02-27T14:37:20;7.00;99.90
31525;DHT22;18134;52.298;8.888;2023-02-27T14:39:51;7.40;99.90
31525;DHT22;18134;52.298;8.888;2023-02-27T14:44:55;7.40;99.90
31525;DHT22;18134;52.298;8.888;2023-02-27T14:47:36;7.40;99.90
31525;DHT22;18134;52.298;8.888;2023-02-27T14:50:19;6.90;99.90
31525;DHT22;18134;52.298;8.888;2023-02-27T14:52:45;6.60;99.90
31525;DHT22;18134;52.298;8.888;2023-02-27T14:57:55;6.00;99.90
31525;DHT22;18134;52.298;8.888;2023-02-27T15:00:30;5.80;99.90
31525;DHT22;18134;52.298;8.888;2023-02-27T15:02:57;5.80;99.90
31525;DHT22;18134;52.298;8.888;2023-02-27T15:05:24;5.90;99.90
31525;DHT22;18134;52.298;8.888;2023-02-27T15:07:55;6.10;99.90
31525;DHT22;18134;52.298;8.888;2023-02-27T15:10:25;6.30;99.90
31525;DHT22;18134;52.298;8.888;2023-02-27T15:12:57;6.40;99.90
31525;DHT22;18134;52.298;8.888;2023-02-27T15:15:23;6.50;99.90
31525;DHT22;18134;52.298;8.888;2023-02-27T15:17:50;6.50;99.90
31525;DHT22;18134;52.298;8.888;2023-02-27T15:22:45;6.30;99.90
31525;DHT22;18134;52.298;8.888;2023-02-27T15:25:26;6.40;99.90
31525;DHT22;18134;52.298;8.888;2023-02-27T15:27:56;6.40;99.90
31525;DHT22;18134;52.298;8.888;2023-02-27T15:30:24;6.40;99.90
31525;DHT22;18134;52.298;8.888;2023-02-27T15:32:50;6.30;99.90
31525;DHT22;18134;52.298;8.888;2023-02-27T15:35:23;6.10;99.90
31525;DHT22;18134;52.298;8.888;2023-02-27T15:37:53;6.10;99.90
31525;DHT22;18134;52.298;8.888;2023-02-27T15:40:22;6.20;99.90
31525;DHT22;18134;52.298;8.888;2023-02-27T15:42:51;6.30;99.90
31525;DHT22;18134;52.298;8.888;2023-02-27T15:45:27;6.30;99.90
31525;DHT22;18134;52.298;8.888;2023-02-27T15:47:56;6.30;99.90
31525;DHT22;18134;52.298;8.888;2023-02-27T15:50:30;6.40;99.90
31525;DHT22;18134;52.298;8.888;2023-02-27T15:53:04;6.50;99.90
31525;DHT22;18134;52.298;8.888;2023-02-27T15:55:34;6.70;99.90
31525;DHT22;18134;52.298;8.888;2023-02-27T15:58:01;6.70;99.90
31525;DHT22;18134;52.298;8.888;2023-02-27T16:00:28;6.90;99.90
31525;DHT22;18134;52.298;8.888;2023-02-27T16:02:56;7.00;99.90
31525;DHT22;18134;52.298;8.888;2023-02-27T16:05:32;7.00;99.90
31525;DHT22;18134;52.298;8.888;2023-02-27T16:08:00;6.90;99.90
31525;DHT22;18134;52.298;8.888;2023-02-27T16:10:27;6.80;99.90
31525;DHT22;18134;52.298;8.888;2023-02-27T16:12:58;6.70;99.90
31525;DHT22;18134;52.298;8.888;2023-02-27T16:15:42;6.50;99.90
31525;DHT22;18134;52.298;8.888;2023-02-27T16:23:14;6.00;99.90
31525;DHT22;18134;52.298;8.888;2023-02-27T16:25:40;5.90;99.90
31525;DHT22;18134;52.298;8.888;2023-02-27T16:28:15;5.80;99.90
31525;DHT22;18134;52.298;8.888;2023-02-27T16:30:41;5.60;99.90
31525;DHT22;18134;52.298;8.888;2023-02-27T16:33:19;5.50;99.90
31525;DHT22;18134;52.298;8.888;2023-02-27T16:35:45;5.50;99.90
31525;DHT22;18134;52.298;8.888;2023-02-27T16:38:11;5.40;99.90
31525;DHT22;18134;52.298;8.888;2023-02-27T16:40:37;5.30;99.90
31525;DHT22;18134;52.298;8.888;2023-02-27T16:43:03;5.20;99.90
31525;DHT22;18134;52.298;8.888;2023-02-27T16:45:30;5.10;99.90
31525;DHT22;18134;52.298;8.888;2023-02-27T16:47:57;5.00;99.90
31525;DHT22;18134;52.298;8.888;2023-02-27T16:50:27;4.80;99.90
31525;DHT22;18134;52.298;8.888;2023-02-27T16:52:53;4.80;99.90
31525;DHT22;18134;52.298;8.888;2023-02-27T16:55:22;4.70;99.90
31525;DHT22;18134;52.298;8.888;2023-02-27T16:57:50;4.60;99.90
31525;DHT22;18134;52.298;8.888;2023-02-27T17:03:19;4.50;99.90
31525;DHT22;18134;52.298;8.888;2023-02-27T17:05:47;4.40;99.90
31525;DHT22;18134;52.298;8.888;2023-02-27T17:08:14;4.30;99.90
31525;DHT22;18134;52.298;8.888;2023-02-27T17:10:41;4.30;99.90
31525;DHT22;18134;52.298;8.888;2023-02-27T17:13:08;4.20;99.90
31525;DHT22;18134;52.298;8.888;2023-02-27T17:15:37;4.20;99.90
31525;DHT22;18134;52.298;8.888;2023-02-27T17:18:02;4.20;99.90
31525;DHT22;18134;52.298;8.888;2023-02-27T17:20:28;4.20;99.90
31525;DHT22;18134;52.298;8.888;2023-02-27T17:22:54;4.10;99.90
31525;DHT22;18134;52.298;8.888;2023-02-27T17:25:20;4.00;99.90
31525;DHT22;18134;52.298;8.888;2023-02-27T17:27:49;3.90;99.90
31525;DHT22;18134;52.298;8.888;2023-02-27T17:30:19;3.90;99.90
31525;DHT22;18134;52.298;8.888;2023-02-27T17:32:47;3.80;99.90
31525;DHT22;18134;52.298;8.888;2023-02-27T17:35:13;3.80;99.90
31525;DHT22;18134;52.298;8.888;2023-02-27T17:37:39;3.70;99.90
31525;DHT22;18134;52.298;8.888;2023-02-27T17:40:05;3.70;99.90
31525;DHT22;18134;52.298;8.888;2023-02-27T17:42:34;3.60;99.90
31525;DHT22;18134;52.298;8.888;2023-02-27T17:45:02;3.60;99.90
31525;DHT22;18134;52.298;8.888;2023-02-27T17:47:33;3.60;99.90
31525;DHT22;18134;52.298;8.888;2023-02-27T17:49:59;3.60;99.90
31525;DHT22;18134;52.298;8.888;2023-02-27T17:52:25;3.50;99.90
31525;DHT22;18134;52.298;8.888;2023-02-27T17:54:54;3.40;99.90
31525;DHT22;18134;52.298;8.888;2023-02-27T17:57:20;3.40;99.90
31525;DHT22;18134;52.298;8.888;2023-02-27T17:59:45;3.30;99.90
31525;DHT22;18134;52.298;8.888;2023-02-27T18:02:11;3.20;99.90
31525;DHT22;18134;52.298;8.888;2023-02-27T18:04:40;3.20;99.90
31525;DHT22;18134;52.298;8.888;2023-02-27T18:07:09;3.10;99.90
31525;DHT22;18134;52.298;8.888;2023-02-27T18:09:35;3.10;99.90
31525;DHT22;18134;52.298;8.888;2023-02-27T18:12:01;3.00;99.90
31525;DHT22;18134;52.298;8.888;2023-02-27T18:14:29;3.00;99.90
31525;DHT22;18134;52.298;8.888;2023-02-27T18:16:55;3.00;99.90
31525;DHT22;18134;52.298;8.888;2023-02-27T18:19:20;3.00;99.90
31525;DHT22;18134;52.298;8.888;2023-02-27T18:21:49;3.00;99.90
31525;DHT22;18134;52.298;8.888;2023-02-27T18:24:15;2.90;99.90
31525;DHT22;18134;52.298;8.888;2023-02-27T18:26:43;2.90;99.90
31525;DHT22;18134;52.298;8.888;2023-02-27T18:29:12;2.90;99.90
31525;DHT22;18134;52.298;8.888;2023-02-27T18:31:42;2.80;99.90
31525;DHT22;18134;52.298;8.888;2023-02-27T18:34:09;2.80;99.90
31525;DHT22;18134;52.298;8.888;2023-02-27T18:36:35;2.80;99.90
31525;DHT22;18134;52.298;8.888;2023-02-27T18:39:01;2.90;99.90
31525;DHT22;18134;52.298;8.888;2023-02-27T18:41:26;3.00;99.90
31525;DHT22;18134;52.298;8.888;2023-02-27T18:43:55;3.00;99.90
31525;DHT22;18134;52.298;8.888;2023-02-27T18:46:22;2.90;99.90
31525;DHT22;18134;52.298;8.888;2023-02-27T18:48:48;3.00;99.90
31525;DHT22;18134;52.298;8.888;2023-02-27T18:51:17;2.90;99.90
31525;DHT22;18134;52.298;8.888;2023-02-27T18:53:46;2.90;99.90